createdAt,value
2019-03-03T00:01:52.561Z,7.67
2019-03-03T00:04:23.182Z,12.20
2019-03-03T00:06:53.644Z,9.90
2019-03-03T00:09:25.985Z,10.00
2019-03-03T00:11:56.401Z,7.70
2019-03-03T00:14:26.827Z,8.70
2019-03-03T00:16:57.278Z,7.50
2019-03-03T00:19:27.689Z,9.07
2019-03-03T00:21:58.114Z,9.53
2019-03-03T00:24:28.615Z,7.30
2019-03-03T00:26:59.020Z,6.47
2019-03-03T00:29:29.447Z,8.43
2019-03-03T00:31:59.866Z,7.17
2019-03-03T00:34:30.275Z,11.40
2019-03-03T00:37:04.931Z,12.17
2019-03-03T00:39:45.978Z,9.00
2019-03-03T00:42:26.880Z,8.63
2019-03-03T00:44:58.914Z,8.53
2019-03-03T00:47:35.651Z,6.57
2019-03-03T00:50:09.154Z,10.43
2019-03-03T00:52:41.173Z,6.83
2019-03-03T00:55:15.968Z,5.77
2019-03-03T00:57:50.615Z,9.77
2019-03-03T01:00:24.607Z,8.67
2019-03-03T01:02:59.340Z,7.50
2019-03-03T01:05:34.530Z,8.83
2019-03-03T01:08:12.378Z,9.13
2019-03-03T01:10:44.358Z,7.33
2019-03-03T01:13:22.390Z,7.53
2019-03-03T01:15:54.407Z,8.77
2019-03-03T01:18:32.318Z,9.40
2019-03-03T01:21:08.140Z,9.33
2019-03-03T01:23:42.807Z,4.90
2019-03-03T01:26:13.238Z,6.57
2019-03-03T01:28:43.704Z,8.30
2019-03-03T01:31:14.098Z,7.13
2019-03-03T01:33:45.390Z,6.60
2019-03-03T01:36:15.934Z,9.27
2019-03-03T01:38:46.361Z,7.17
2019-03-03T01:41:16.759Z,6.40
2019-03-03T01:43:47.202Z,7.83
2019-03-03T01:46:17.632Z,8.40
2019-03-03T01:48:48.032Z,6.87
2019-03-03T01:51:18.428Z,7.10
2019-03-03T01:53:48.857Z,5.87
2019-03-03T01:56:19.269Z,6.30
2019-03-03T01:58:51.259Z,7.30
2019-03-03T02:01:21.639Z,7.07
2019-03-03T02:03:52.329Z,5.90
2019-03-03T02:06:23.014Z,8.30
2019-03-03T02:08:53.647Z,5.63
2019-03-03T02:11:27.091Z,7.23
2019-03-03T02:13:57.835Z,5.83
2019-03-03T02:16:28.501Z,5.10
2019-03-03T02:18:59.163Z,5.73
2019-03-03T02:21:29.842Z,5.10
2019-03-03T02:24:00.242Z,7.63
2019-03-03T02:26:30.758Z,6.10
2019-03-03T02:29:01.226Z,7.23
2019-03-03T02:31:31.675Z,8.20
2019-03-03T02:34:02.055Z,5.23
2019-03-03T02:36:32.439Z,9.10
2019-03-03T02:39:04.411Z,6.67
2019-03-03T02:41:34.862Z,7.17
2019-03-03T02:44:05.457Z,5.43
2019-03-03T02:46:35.900Z,6.13
2019-03-03T02:49:06.405Z,5.43
2019-03-03T02:51:36.992Z,5.50
2019-03-03T02:54:07.423Z,7.83
2019-03-03T02:56:37.862Z,6.83
2019-03-03T02:59:08.367Z,4.63
2019-03-03T03:01:40.454Z,5.73
2019-03-03T03:04:11.111Z,5.07
2019-03-03T03:06:46.006Z,5.17
2019-03-03T03:09:18.010Z,7.47
2019-03-03T03:11:58.770Z,5.87
2019-03-03T03:14:33.596Z,5.13
2019-03-03T03:17:17.254Z,5.00
2019-03-03T03:20:01.389Z,8.27
2019-03-03T03:22:33.321Z,7.40
2019-03-03T03:25:21.909Z,8.50
2019-03-03T03:28:02.768Z,10.77
2019-03-03T03:30:49.821Z,7.57
2019-03-03T03:33:24.756Z,7.03
2019-03-03T03:35:56.762Z,11.50
2019-03-03T03:38:28.730Z,8.40
2019-03-03T03:41:16.690Z,10.13
2019-03-03T03:43:57.845Z,9.90
2019-03-03T03:46:38.555Z,11.10
2019-03-03T03:49:10.561Z,10.17
2019-03-03T03:51:45.303Z,15.83
2019-03-03T03:54:35.478Z,13.57
2019-03-03T03:57:13.521Z,12.60
2019-03-03T03:59:45.506Z,13.27
2019-03-03T04:02:17.455Z,11.10
2019-03-03T04:04:55.197Z,15.93
2019-03-03T04:07:45.399Z,17.87
2019-03-03T04:10:20.389Z,11.17
2019-03-03T04:12:55.679Z,13.87
2019-03-03T04:15:33.661Z,14.30
2019-03-03T04:18:05.652Z,14.43
2019-03-03T04:20:40.700Z,16.50
2019-03-03T04:23:12.891Z,16.53
2019-03-03T04:26:01.133Z,13.63
2019-03-03T04:28:45.252Z,20.17
2019-03-03T04:31:17.226Z,18.97
2019-03-03T04:33:54.468Z,16.73
2019-03-03T04:36:26.544Z,20.93
2019-03-03T04:39:01.193Z,21.00
2019-03-03T04:41:35.912Z,22.73
2019-03-03T04:44:22.749Z,23.00
2019-03-03T04:47:00.567Z,23.20
2019-03-03T04:49:41.317Z,22.23
2019-03-03T04:52:25.205Z,25.50
2019-03-03T04:55:15.540Z,25.73
2019-03-03T04:57:50.594Z,24.73
2019-03-03T05:00:34.679Z,30.80
2019-03-03T05:03:22.967Z,34.63
2019-03-03T05:05:57.917Z,37.70
2019-03-03T05:08:29.887Z,31.93
2019-03-03T05:11:01.868Z,33.20
2019-03-03T05:13:33.879Z,34.60
2019-03-03T05:16:20.971Z,54.70
2019-03-03T05:18:52.966Z,56.70
2019-03-03T05:21:23.448Z,43.07
2019-03-03T05:23:53.960Z,40.57
2019-03-03T05:26:24.514Z,49.10
2019-03-03T05:28:54.936Z,52.27
2019-03-03T05:31:25.352Z,56.33
2019-03-03T05:33:55.829Z,49.50
2019-03-03T05:36:26.289Z,43.53
2019-03-03T05:38:56.716Z,38.33
2019-03-03T05:41:27.156Z,41.20
2019-03-03T05:43:57.603Z,59.73
2019-03-03T05:46:28.106Z,61.80
2019-03-03T05:48:58.621Z,45.67
2019-03-03T05:51:29.032Z,52.17
2019-03-03T05:53:59.573Z,59.23
2019-03-03T05:56:30.080Z,62.73
2019-03-03T05:59:00.474Z,64.67
2019-03-03T06:01:30.875Z,63.17
2019-03-03T06:04:01.392Z,56.03
2019-03-03T06:06:31.872Z,58.47
2019-03-03T06:09:02.441Z,54.73
2019-03-03T06:11:33.036Z,59.97
2019-03-03T06:14:03.403Z,48.70
2019-03-03T06:16:33.925Z,60.57
2019-03-03T06:19:04.307Z,67.20
2019-03-03T06:21:34.719Z,55.93
2019-03-03T06:24:05.262Z,59.10
2019-03-03T06:26:35.691Z,52.63
2019-03-03T06:29:06.220Z,66.23
2019-03-03T06:31:37.776Z,63.50
2019-03-03T06:34:09.123Z,62.67
2019-03-03T06:36:39.549Z,62.97
2019-03-03T06:39:10.030Z,70.57
2019-03-03T06:41:40.418Z,61.43
2019-03-03T06:44:10.883Z,57.13
2019-03-03T06:46:41.427Z,41.00
2019-03-03T06:49:12.679Z,47.50
2019-03-03T06:51:43.200Z,29.73
2019-03-03T06:54:13.635Z,26.10
2019-03-03T06:56:44.030Z,28.10
2019-03-03T06:59:16.677Z,28.17
2019-03-03T07:01:47.105Z,23.80
2019-03-03T07:04:17.651Z,37.33
2019-03-03T07:06:48.212Z,25.97
2019-03-03T07:09:18.893Z,29.20
2019-03-03T07:11:49.320Z,31.00
2019-03-03T07:14:19.714Z,33.83
2019-03-03T07:16:50.243Z,31.77
2019-03-03T07:19:20.671Z,27.77
2019-03-03T07:21:51.085Z,30.77
2019-03-03T07:24:23.079Z,31.57
2019-03-03T07:26:53.487Z,29.83
2019-03-03T07:29:25.443Z,26.43
2019-03-03T07:31:55.926Z,36.20
2019-03-03T07:34:27.935Z,32.23
2019-03-03T07:36:58.365Z,27.10
2019-03-03T07:39:29.164Z,30.43
2019-03-03T07:42:05.648Z,30.67
2019-03-03T07:44:36.578Z,27.87
2019-03-03T07:47:07.166Z,36.60
2019-03-03T07:49:54.244Z,41.87
2019-03-03T07:52:26.109Z,46.43
2019-03-03T07:54:56.660Z,38.47
2019-03-03T07:57:27.067Z,32.83
2019-03-03T07:59:57.603Z,31.47
2019-03-03T08:02:28.786Z,35.47
2019-03-03T08:04:59.249Z,30.80
2019-03-03T08:07:29.674Z,38.20
2019-03-03T08:10:00.259Z,29.57
2019-03-03T08:12:30.769Z,37.43
2019-03-03T08:15:02.125Z,40.10
2019-03-03T08:17:32.556Z,29.97
2019-03-03T08:20:02.958Z,31.97
2019-03-03T08:22:33.377Z,28.00
2019-03-03T08:25:05.573Z,25.23
2019-03-03T08:27:37.539Z,24.10
2019-03-03T08:30:14.568Z,27.90
2019-03-03T08:32:47.068Z,23.93
2019-03-03T08:35:29.302Z,23.47
2019-03-03T08:37:59.788Z,24.20
2019-03-03T08:40:30.255Z,24.10
2019-03-03T08:43:08.112Z,15.97
2019-03-03T08:45:55.814Z,16.17
2019-03-03T08:48:36.923Z,23.70
2019-03-03T08:51:14.846Z,25.40
2019-03-03T08:53:52.680Z,20.60
2019-03-03T08:56:36.761Z,20.77
2019-03-03T08:59:23.899Z,15.70
2019-03-03T09:02:01.842Z,19.23
2019-03-03T09:04:39.822Z,17.63
2019-03-03T09:07:14.803Z,24.90
2019-03-03T09:09:49.610Z,15.77
2019-03-03T09:12:23.212Z,15.13
2019-03-03T09:15:03.652Z,10.83
2019-03-03T09:17:51.589Z,17.20
2019-03-03T09:20:23.931Z,11.87
2019-03-03T09:23:02.078Z,14.80
2019-03-03T09:25:34.370Z,14.90
2019-03-03T09:28:12.106Z,18.20
2019-03-03T09:30:47.146Z,15.13
2019-03-03T09:33:26.255Z,22.13
2019-03-03T09:36:12.043Z,13.40
2019-03-03T09:38:53.066Z,26.87
2019-03-03T09:41:41.212Z,10.67
2019-03-03T09:44:19.034Z,13.17
2019-03-03T09:46:57.191Z,18.03
2019-03-03T09:49:29.253Z,11.63
2019-03-03T09:52:07.106Z,14.77
2019-03-03T09:54:42.080Z,13.90
2019-03-03T09:57:25.431Z,15.17
2019-03-03T10:00:04.218Z,21.80
2019-03-03T10:02:42.369Z,19.90
2019-03-03T10:05:26.553Z,21.00
2019-03-03T10:08:10.486Z,21.10
2019-03-03T10:10:45.288Z,19.93
2019-03-03T10:13:32.556Z,18.80
2019-03-03T10:16:08.055Z,27.57
2019-03-03T10:18:54.943Z,18.57
2019-03-03T10:21:35.839Z,12.97
2019-03-03T10:24:15.367Z,16.90
2019-03-03T10:27:04.943Z,11.43
2019-03-03T10:29:40.084Z,37.83
2019-03-03T10:32:13.134Z,19.87
2019-03-03T10:34:54.155Z,15.73
2019-03-03T10:37:30.515Z,15.43
2019-03-03T10:40:06.110Z,20.17
2019-03-03T10:42:46.369Z,52.90
2019-03-03T10:45:20.899Z,24.07
2019-03-03T10:47:56.004Z,17.77
2019-03-03T10:50:33.940Z,22.83
2019-03-03T10:53:07.364Z,17.47
2019-03-03T10:55:39.450Z,17.10
2019-03-03T10:58:27.820Z,22.73
2019-03-03T11:01:00.013Z,14.07
2019-03-03T11:03:44.225Z,13.53
2019-03-03T11:06:25.351Z,14.57
2019-03-03T11:08:57.370Z,13.73
2019-03-03T11:11:29.429Z,10.17
2019-03-03T11:14:20.318Z,8.30
2019-03-03T11:16:55.225Z,8.90
2019-03-03T11:19:27.128Z,10.13
2019-03-03T11:22:07.904Z,9.27
2019-03-03T11:24:42.803Z,11.37
2019-03-03T11:27:20.599Z,11.50
2019-03-03T11:30:08.633Z,13.10
2019-03-03T11:32:50.828Z,15.23
2019-03-03T11:35:34.815Z,7.47
2019-03-03T11:38:06.776Z,15.97
2019-03-03T11:40:41.413Z,15.00
2019-03-03T11:43:22.159Z,12.60
2019-03-03T11:46:11.352Z,12.77
2019-03-03T11:48:52.392Z,10.03
2019-03-03T11:51:24.505Z,19.37
2019-03-03T11:54:11.678Z,15.80
2019-03-03T11:56:46.697Z,11.90
2019-03-03T11:59:27.654Z,13.43
2019-03-03T12:02:02.939Z,13.57
2019-03-03T12:04:41.151Z,12.47
2019-03-03T12:07:28.271Z,13.33
2019-03-03T12:10:07.641Z,12.57
2019-03-03T12:12:56.214Z,24.80
2019-03-03T12:15:36.041Z,14.67
2019-03-03T12:21:06.784Z,16.43
2019-03-03T12:23:47.846Z,12.13
2019-03-03T12:26:37.009Z,15.10
2019-03-03T12:29:25.155Z,15.37
2019-03-03T12:32:13.371Z,9.77
2019-03-03T12:35:01.219Z,11.93
2019-03-03T12:37:35.698Z,23.53
2019-03-03T12:40:23.127Z,13.57
2019-03-03T12:42:57.971Z,10.10
2019-03-03T12:45:46.236Z,11.97
2019-03-03T12:48:21.523Z,15.90
2019-03-03T12:51:08.545Z,16.20
2019-03-03T12:53:40.699Z,7.47
2019-03-03T12:56:28.847Z,22.13
2019-03-03T12:59:13.522Z,19.17
2019-03-03T13:02:01.570Z,14.87
2019-03-03T13:04:49.890Z,64.33
2019-03-03T13:07:27.894Z,11.50
2019-03-03T13:10:15.726Z,15.27
2019-03-03T13:13:04.071Z,11.77
2019-03-03T13:15:53.456Z,11.73
2019-03-03T13:18:34.312Z,10.23
2019-03-03T13:21:18.261Z,6.93
2019-03-03T13:23:54.989Z,10.13
2019-03-03T13:26:31.600Z,10.23
2019-03-03T13:29:24.133Z,10.63
2019-03-03T13:32:05.012Z,12.93
2019-03-03T13:34:43.239Z,11.77
2019-03-03T13:37:24.072Z,10.83
2019-03-03T13:39:58.942Z,10.40
2019-03-03T13:42:33.883Z,12.13
2019-03-03T13:45:08.346Z,11.17
2019-03-03T13:47:40.997Z,15.47
2019-03-03T13:50:20.214Z,19.77
2019-03-03T13:52:51.668Z,13.53
2019-03-03T13:55:22.081Z,12.80
2019-03-03T13:57:59.544Z,16.40
2019-03-03T14:00:34.076Z,19.30
2019-03-03T14:03:08.403Z,16.70
2019-03-03T14:05:40.363Z,12.73
2019-03-03T14:08:16.144Z,11.43
2019-03-03T14:10:49.036Z,16.50
2019-03-03T14:13:19.504Z,17.10
2019-03-03T14:15:54.947Z,9.67
2019-03-03T14:18:26.912Z,15.83
2019-03-03T14:20:57.415Z,11.27
2019-03-03T14:23:27.838Z,10.53
2019-03-03T14:25:58.369Z,9.90
2019-03-03T14:28:39.344Z,18.53
2019-03-03T14:31:17.062Z,10.77
2019-03-03T14:33:52.052Z,16.33
2019-03-03T14:36:23.803Z,16.70
2019-03-03T14:38:54.261Z,17.43
2019-03-03T14:41:24.707Z,15.70
2019-03-03T14:43:57.003Z,14.87
2019-03-03T14:46:27.442Z,17.17
2019-03-03T14:48:57.939Z,14.77
2019-03-03T14:51:40.265Z,18.97
2019-03-03T14:54:12.255Z,15.23
2019-03-03T14:56:45.955Z,23.60
2019-03-03T14:59:20.015Z,16.00
2019-03-03T15:01:58.427Z,18.13
2019-03-03T15:04:43.882Z,15.97
2019-03-03T15:07:17.079Z,18.10
2019-03-03T15:09:47.873Z,18.10
2019-03-03T15:12:27.238Z,24.53
2019-03-03T15:14:58.158Z,24.20
2019-03-03T15:17:36.575Z,26.10
2019-03-03T15:20:08.701Z,28.80
2019-03-03T15:23:12.019Z,25.97
2019-03-03T15:26:07.889Z,40.30
2019-03-03T15:32:03.929Z,32.40
2019-03-03T15:37:48.049Z,36.90
2019-03-03T15:40:35.605Z,34.43
2019-03-03T15:43:08.536Z,27.60
2019-03-03T15:45:39.074Z,28.17
2019-03-03T15:48:11.243Z,29.83
2019-03-03T15:54:19.387Z,33.13
2019-03-03T15:56:50.580Z,42.93
2019-03-03T15:59:28.604Z,65.47
2019-03-03T16:02:08.067Z,47.60
2019-03-03T16:04:41.265Z,46.27
2019-03-03T16:07:11.276Z,48.40
2019-03-03T16:09:41.905Z,44.23
2019-03-03T16:12:12.391Z,48.33
2019-03-03T16:14:49.410Z,49.17
2019-03-03T16:17:23.490Z,61.57
2019-03-03T16:20:01.539Z,47.97
2019-03-03T16:22:49.101Z,45.00
2019-03-03T16:25:25.967Z,51.10
2019-03-03T16:31:16.455Z,39.10
2019-03-03T16:33:53.305Z,33.77
2019-03-03T16:36:42.493Z,36.30
2019-03-03T16:39:31.270Z,32.57
2019-03-03T16:42:04.511Z,31.00
2019-03-03T16:44:39.846Z,34.70
2019-03-03T16:47:14.422Z,42.17
